KSCH/SCH METAR and TAF weather

Enter ICAO airport designator
Station Type Date Time Source
KSCH METAR 2019/08/25 17:45 UTC NOAA

KSCH 251745Z 07005KT 15SM SCT043 OVC060 23/12 A3031


Station Type Date Time Source
KSCH Decoded METAR 2019/08/25 17:45 UTC NOAA

Station name not available
Aug 25, 2019 - 01:45 PM EDT / 2019.08.25 1745 UTC
Wind: from the ENE (070 degrees) at 6 MPH (5 KT):0
Visibility: 15 mile(s):0
Sky conditions: overcast
Temperature: 73 F (23 C)
Dew Point: 53 F (12 C)
Relative Humidity: 49%
Pressure (altimeter): 30.31 in. Hg (1026 hPa)
ob: KSCH 251745Z 07005KT 15SM SCT043 OVC060 23/12 A3031
cycle: 18

Station Type Date Time Source
KSCH TAF UTC NOAA

Error!

Example: see airport list